createdAt,value
2023-05-07T00:03:36.440Z,99161.53
2023-05-07T00:08:44.969Z,99158.81
2023-05-07T00:13:53.054Z,99139.56
2023-05-07T00:19:07.636Z,99148.09
2023-05-07T00:24:13.122Z,99138.34
2023-05-07T00:29:20.719Z,99142.16
2023-05-07T00:34:29.774Z,99149.84
2023-05-07T00:39:37.163Z,99151.94
2023-05-07T00:44:44.089Z,99150.06
2023-05-07T00:49:53.020Z,99147.19
2023-05-07T00:54:59.333Z,99146.66
2023-05-07T01:00:07.508Z,99152.72
2023-05-07T01:05:18.226Z,99150.94
2023-05-07T01:10:23.993Z,99154.66
2023-05-07T01:15:29.688Z,99158.91
2023-05-07T01:20:44.102Z,99143.44
2023-05-07T01:26:01.220Z,99151.00
2023-05-07T01:31:10.580Z,99151.13
2023-05-07T01:36:22.392Z,99162.19
2023-05-07T01:41:30.759Z,99163.78
2023-05-07T01:46:40.332Z,99168.66
2023-05-07T01:51:48.377Z,99166.56
2023-05-07T01:56:57.579Z,99163.16
2023-05-07T02:02:02.843Z,99173.16
2023-05-07T02:07:11.343Z,99162.34
2023-05-07T02:12:21.007Z,99170.75
2023-05-07T02:17:26.771Z,99171.94
2023-05-07T02:22:36.569Z,99164.03
2023-05-07T02:27:46.822Z,99178.94
2023-05-07T02:32:56.241Z,99182.44
2023-05-07T02:38:01.594Z,99176.53
2023-05-07T02:43:12.272Z,99186.50
2023-05-07T02:48:22.023Z,99195.66
2023-05-07T02:53:27.494Z,99188.47
2023-05-07T02:58:35.874Z,99182.47
2023-05-07T03:03:44.709Z,99184.28
2023-05-07T03:08:51.867Z,99175.31
2023-05-07T03:14:02.963Z,99190.69
2023-05-07T03:19:08.775Z,99193.31
2023-05-07T03:24:15.944Z,99184.19
2023-05-07T03:29:28.068Z,99196.31
2023-05-07T03:34:33.383Z,99198.38
2023-05-07T03:39:41.173Z,99192.81
2023-05-07T03:44:49.585Z,99197.00
2023-05-07T03:49:57.084Z,99205.66
2023-05-07T03:55:04.874Z,99189.94
2023-05-07T04:00:19.030Z,99207.81
2023-05-07T04:05:28.498Z,99207.16
2023-05-07T04:10:40.181Z,99206.78
2023-05-07T04:15:53.565Z,99206.63
2023-05-07T04:21:01.160Z,99207.09
2023-05-07T04:26:08.896Z,99205.00
2023-05-07T04:31:23.123Z,99219.41
2023-05-07T04:36:31.753Z,99215.44
2023-05-07T04:41:41.167Z,99222.38
2023-05-07T04:46:52.270Z,99223.03
2023-05-07T04:51:57.577Z,99233.81
2023-05-07T04:57:03.470Z,99241.59
2023-05-07T05:02:20.966Z,99244.06
2023-05-07T05:07:28.242Z,99258.81
2023-05-07T05:12:34.134Z,99273.91
2023-05-07T05:17:44.469Z,99269.47
2023-05-07T05:22:50.245Z,99263.66
2023-05-07T05:27:59.404Z,99263.56
2023-05-07T05:33:07.740Z,99256.94
2023-05-07T05:38:15.388Z,99261.94
2023-05-07T05:43:21.023Z,99269.00
2023-05-07T05:48:33.006Z,99274.59
2023-05-07T05:53:40.792Z,99277.03
2023-05-07T05:58:49.390Z,99284.69
2023-05-07T06:03:57.733Z,99289.75
2023-05-07T06:09:03.127Z,99288.66
2023-05-07T06:14:18.018Z,99295.31
2023-05-07T06:19:30.725Z,99312.91
2023-05-07T06:24:40.336Z,99307.00
2023-05-07T06:29:47.460Z,99319.81
2023-05-07T06:34:59.628Z,99330.91
2023-05-07T06:40:08.666Z,99320.06
2023-05-07T06:45:17.041Z,99322.03
2023-05-07T06:50:27.950Z,99322.94
2023-05-07T06:55:39.442Z,99325.50
2023-05-07T07:00:48.245Z,99327.69
2023-05-07T07:05:58.723Z,99341.13
2023-05-07T07:11:05.257Z,99343.72
2023-05-07T07:16:11.580Z,99337.06
2023-05-07T07:21:25.326Z,99341.81
2023-05-07T07:26:31.178Z,99345.78
2023-05-07T07:31:36.971Z,99360.13
2023-05-07T07:36:46.843Z,99357.63
2023-05-07T07:41:56.628Z,99362.66
2023-05-07T07:47:05.399Z,99359.19
2023-05-07T07:52:20.933Z,99356.78
2023-05-07T07:57:26.625Z,99369.22
2023-05-07T08:02:34.302Z,99374.22
2023-05-07T08:07:42.637Z,99375.84
2023-05-07T08:12:51.646Z,99378.03
2023-05-07T08:17:58.774Z,99383.53
2023-05-07T08:23:07.413Z,99377.06
2023-05-07T08:28:13.747Z,99374.09
2023-05-07T08:33:20.188Z,99385.47
2023-05-07T08:38:31.609Z,99406.28
2023-05-07T08:43:42.362Z,99395.81
2023-05-07T08:48:51.784Z,99396.94
2023-05-07T08:54:03.472Z,99393.59
2023-05-07T08:59:11.481Z,99398.31
2023-05-07T09:04:22.986Z,99409.44
2023-05-07T09:09:32.749Z,99420.66
2023-05-07T09:14:38.389Z,99408.44
2023-05-07T09:19:47.855Z,99420.81
2023-05-07T09:24:57.027Z,99416.25
2023-05-07T09:30:16.559Z,99427.47
2023-05-07T09:35:23.297Z,99427.78
2023-05-07T09:40:36.981Z,99436.97
2023-05-07T09:45:54.801Z,99426.69
2023-05-07T09:51:08.812Z,99422.34
2023-05-07T09:56:21.102Z,99431.41
2023-05-07T10:01:31.194Z,99429.84
2023-05-07T10:06:39.106Z,99430.66
2023-05-07T10:11:57.422Z,99412.25
2023-05-07T10:17:04.786Z,99424.25
2023-05-07T10:22:11.895Z,99414.34
2023-05-07T10:27:26.510Z,99425.28
2023-05-07T10:32:43.243Z,99425.41
2023-05-07T10:37:55.365Z,99415.56
2023-05-07T10:43:10.684Z,99406.78
2023-05-07T10:48:30.511Z,99411.13
2023-05-07T10:54:28.859Z,99410.91
2023-05-07T10:59:51.216Z,99407.41
2023-05-07T11:05:24.649Z,99426.78
2023-05-07T11:10:57.560Z,99416.97
2023-05-07T11:16:29.161Z,99420.06
2023-05-07T11:21:45.876Z,99404.63
2023-05-07T11:27:27.790Z,99396.78
2023-05-07T11:32:37.506Z,99406.13
2023-05-07T11:37:43.417Z,99407.88
2023-05-07T11:42:56.534Z,99409.81
2023-05-07T11:48:07.128Z,99406.34
2023-05-07T11:53:15.286Z,99410.38
2023-05-07T11:58:27.715Z,99402.19
2023-05-07T12:03:36.404Z,99418.09
2023-05-07T12:08:47.051Z,99416.38
2023-05-07T12:14:01.192Z,99420.13
2023-05-07T12:19:21.001Z,99422.13
2023-05-07T12:24:27.800Z,99417.41
2023-05-07T12:29:34.092Z,99417.81
2023-05-07T12:34:45.439Z,99433.72
2023-05-07T12:39:55.909Z,99443.69
2023-05-07T12:45:09.520Z,99449.88
2023-05-07T12:50:22.253Z,99449.22
2023-05-07T12:55:29.223Z,99435.59
2023-05-07T13:00:44.697Z,99440.94
2023-05-07T13:05:58.480Z,99428.16
2023-05-07T13:11:08.206Z,99433.25
2023-05-07T13:16:15.387Z,99436.41
2023-05-07T13:21:24.571Z,99433.78
2023-05-07T13:26:35.518Z,99441.34
2023-05-07T13:31:47.716Z,99429.38
2023-05-07T13:37:03.855Z,99430.84
2023-05-07T13:42:17.956Z,99431.03
2023-05-07T13:47:25.752Z,99427.47
2023-05-07T13:52:33.756Z,99429.03
2023-05-07T13:57:39.424Z,99432.06
2023-05-07T14:02:47.314Z,99431.34
2023-05-07T14:07:55.689Z,99430.03
2023-05-07T14:13:00.871Z,99423.41
2023-05-07T14:18:09.522Z,99418.28
2023-05-07T14:23:23.316Z,99420.00
2023-05-07T14:28:28.402Z,99430.84
2023-05-07T14:33:36.511Z,99424.69
2023-05-07T14:38:46.117Z,99421.00
2023-05-07T14:43:51.465Z,99416.81
2023-05-07T14:49:01.812Z,99419.06
2023-05-07T14:54:12.012Z,99416.38
2023-05-07T14:59:19.964Z,99415.22
2023-05-07T15:04:27.821Z,99419.66
2023-05-07T15:09:40.929Z,99421.84
2023-05-07T15:14:48.589Z,99428.19
2023-05-07T15:19:56.366Z,99436.63
2023-05-07T15:25:05.456Z,99429.81
2023-05-07T15:30:12.713Z,99449.88
2023-05-07T15:35:18.790Z,99442.97
2023-05-07T15:40:30.557Z,99431.59
2023-05-07T15:45:44.695Z,99444.53
2023-05-07T15:50:50.914Z,99444.56
2023-05-07T15:56:02.102Z,99449.53
2023-05-07T16:01:14.420Z,99446.81
2023-05-07T16:06:20.331Z,99437.56
2023-05-07T16:11:30.584Z,99436.38
2023-05-07T16:16:42.264Z,99450.22
2023-05-07T16:21:47.579Z,99451.47
2023-05-07T16:26:56.724Z,99448.69
2023-05-07T16:32:07.854Z,99452.88
2023-05-07T16:37:21.751Z,99467.34
2023-05-07T16:42:37.052Z,99460.91
2023-05-07T16:47:44.288Z,99465.78
2023-05-07T16:52:52.443Z,99478.28
2023-05-07T16:58:03.704Z,99466.19
2023-05-07T17:03:09.417Z,99467.69
2023-05-07T17:08:14.740Z,99482.22
2023-05-07T17:13:28.603Z,99485.16
2023-05-07T17:18:35.924Z,99486.84
2023-05-07T17:23:42.605Z,99492.56
2023-05-07T17:28:50.443Z,99489.41
2023-05-07T17:33:59.549Z,99498.38
2023-05-07T17:39:09.661Z,99514.28
2023-05-07T17:44:17.988Z,99508.63
2023-05-07T17:49:25.161Z,99503.56
2023-05-07T17:54:33.346Z,99495.09
2023-05-07T17:59:41.294Z,99495.94
2023-05-07T18:04:49.435Z,99503.09
2023-05-07T18:09:54.649Z,99507.75
2023-05-07T18:15:07.377Z,99507.00
2023-05-07T18:20:17.284Z,99505.41
2023-05-07T18:25:25.911Z,99507.16
2023-05-07T18:30:41.316Z,99508.50
2023-05-07T18:35:54.455Z,99516.56
2023-05-07T18:41:06.586Z,99530.34
2023-05-07T18:46:15.401Z,99528.28
2023-05-07T18:51:23.841Z,99522.69
2023-05-07T18:56:34.698Z,99521.41
2023-05-07T19:01:45.841Z,99538.41
2023-05-07T19:06:54.789Z,99545.84
2023-05-07T19:12:04.633Z,99544.81
2023-05-07T19:17:19.483Z,99548.53
2023-05-07T19:22:25.368Z,99543.50
2023-05-07T19:27:31.832Z,99550.13
2023-05-07T19:32:40.377Z,99550.66
2023-05-07T19:37:48.096Z,99557.06
2023-05-07T19:42:53.707Z,99559.16
2023-05-07T19:48:04.721Z,99563.69
2023-05-07T19:53:10.354Z,99567.13
2023-05-07T19:58:17.657Z,99576.94
2023-05-07T20:03:28.038Z,99568.19
2023-05-07T20:08:33.531Z,99579.84
2023-05-07T20:13:39.051Z,99586.22
2023-05-07T20:18:49.608Z,99599.19
2023-05-07T20:23:54.774Z,99608.47
2023-05-07T20:29:00.047Z,99610.28
2023-05-07T20:34:10.308Z,99612.94
2023-05-07T20:39:18.296Z,99613.44
2023-05-07T20:44:28.454Z,99609.41
2023-05-07T20:49:36.445Z,99619.75
2023-05-07T20:54:44.116Z,99623.13
2023-05-07T20:59:49.492Z,99632.91
2023-05-07T21:05:04.462Z,99633.16
2023-05-07T21:10:13.256Z,99628.28
2023-05-07T21:15:18.908Z,99639.34
2023-05-07T21:20:26.671Z,99648.63
2023-05-07T21:25:32.216Z,99627.91
2023-05-07T21:30:38.602Z,99639.00
2023-05-07T21:35:46.852Z,99652.22
2023-05-07T21:40:51.907Z,99643.97
2023-05-07T21:45:58.111Z,99643.13
2023-05-07T21:51:12.906Z,99658.19
2023-05-07T21:56:18.093Z,99657.88
2023-05-07T22:01:23.476Z,99651.72
2023-05-07T22:06:31.539Z,99666.56
2023-05-07T22:11:36.625Z,99664.09
2023-05-07T22:16:42.057Z,99660.13
2023-05-07T22:21:49.977Z,99656.63
2023-05-07T22:26:55.140Z,99650.16
2023-05-07T22:32:00.683Z,99649.78
2023-05-07T22:37:11.052Z,99659.34
2023-05-07T22:42:16.360Z,99657.00
2023-05-07T22:47:23.396Z,99658.94
2023-05-07T22:52:31.418Z,99658.69
2023-05-07T22:57:36.664Z,99659.59
2023-05-07T23:02:42.065Z,99657.38
2023-05-07T23:07:49.935Z,99666.28
2023-05-07T23:12:56.076Z,99654.03
2023-05-07T23:18:03.631Z,99663.91
2023-05-07T23:23:13.871Z,99657.00
2023-05-07T23:28:20.869Z,99658.38
2023-05-07T23:33:28.300Z,99653.63
2023-05-07T23:38:36.112Z,99654.97
2023-05-07T23:43:42.462Z,99655.22
2023-05-07T23:48:49.627Z,99654.84
2023-05-07T23:53:57.412Z,99650.47
2023-05-07T23:59:04.017Z,99639.63
